Time;durP1;ratioP1;P1;durP2;ratioP2;P2;SDS_P1;SDS_P2;PMS_P1;PMS_P2;Temp;Humidity;BMP_temperature;BMP_pressure;BME280_temperature;BME280_humidity;BME280_pressure;Samples;Min_cycle;Max_cycle;Signal;HPM_P1;HPM_P2
2022/05/18 00:00:19;;;;;;;5.03;4.50;;;;;;;;;;2081240;28;20529;-55
2022/05/18 00:01:22;;;;;;;6.35;4.68;;;;;;;;;;2081316;28;20540;-54
2022/05/18 00:02:23;;;;;;;5.70;5.20;;;;;;;;;;2081219;28;20169;-53
2022/05/18 00:03:25;;;;;;;4.80;4.38;;;;;;;;;;2080890;28;20656;-58
2022/05/18 00:04:26;;;;;;;4.78;4.32;;;;;;;;;;2080769;28;20211;-56
2022/05/18 00:05:26;;;;;;;5.47;4.85;;;;;;;;;;2081014;28;20175;-56
2022/05/18 00:06:26;;;;;;;5.40;4.68;;;;;;;;;;2081968;28;20664;-54
2022/05/18 00:07:26;;;;;;;7.70;4.60;;;;;;;;;;2082523;28;20192;-56
2022/05/18 00:08:27;;;;;;;6.18;4.72;;;;;;;;;;2082459;28;20246;-56
2022/05/18 00:09:28;;;;;;;5.85;4.70;;;;;;;;;;2082773;28;20259;-57
2022/05/18 00:10:28;;;;;;;5.10;4.65;;;;;;;;;;2082437;28;20168;-55
2022/05/18 00:11:30;;;;;;;5.38;4.80;;;;;;;;;;2082803;28;20185;-56
2022/05/18 00:12:31;;;;;;;6.38;4.63;;;;;;;;;;2082580;28;20172;-52
2022/05/18 00:13:31;;;;;;;6.00;5.45;;;;;;;;;;2085105;28;20184;-52
2022/05/18 00:14:31;;;;;;;5.22;4.72;;;;;;;;;;2082767;28;20187;-55
2022/05/18 00:15:32;;;;;;;5.60;5.10;;;;;;;;;;2082860;28;20172;-56
2022/05/18 00:16:32;;;;;;;5.45;4.95;;;;;;;;;;2082620;28;20172;-56
2022/05/18 00:17:32;;;;;;;5.50;5.10;;;;;;;;;;2082615;28;20172;-56
2022/05/18 00:18:33;;;;;;;5.82;5.07;;;;;;;;;;2082404;28;20180;-56
2022/05/18 00:19:33;;;;;;;6.88;4.90;;;;;;;;;;2082597;28;20161;-56
2022/05/18 00:20:34;;;;;;;5.57;5.07;;;;;;;;;;2082172;28;20726;-56
2022/05/18 00:21:34;;;;;;;8.48;5.63;;;;;;;;;;2082580;28;20176;-56
2022/05/18 00:22:42;;;;;;;8.82;4.72;;;;;;;;;;2082503;28;20184;-57
2022/05/18 00:23:42;;;;;;;5.80;5.32;;;;;;;;;;2082662;28;20172;-52
2022/05/18 00:24:43;;;;;;;5.80;5.30;;;;;;;;;;2082118;28;20172;-54
2022/05/18 00:25:43;;;;;;;5.82;5.32;;;;;;;;;;2083071;28;20274;-51
2022/05/18 00:26:43;;;;;;;5.75;5.25;;;;;;;;;;2081946;28;20222;-56
2022/05/18 00:27:43;;;;;;;5.55;5.13;;;;;;;;;;2081882;28;20172;-56
2022/05/18 00:28:44;;;;;;;5.70;5.20;;;;;;;;;;2082497;28;20176;-56
2022/05/18 00:29:44;;;;;;;6.00;5.13;;;;;;;;;;2082630;28;20173;-55
2022/05/18 00:30:44;;;;;;;5.22;4.82;;;;;;;;;;2082451;28;20272;-53
2022/05/18 00:31:46;;;;;;;7.60;4.78;;;;;;;;;;2082637;28;20222;-55
2022/05/18 00:32:47;;;;;;;6.30;5.10;;;;;;;;;;2082699;28;20223;-55
2022/05/18 00:33:47;;;;;;;8.65;5.35;;;;;;;;;;2082458;28;20669;-56
2022/05/18 00:34:47;;;;;;;5.20;4.70;;;;;;;;;;2082065;28;20164;-54
2022/05/18 00:35:47;;;;;;;5.60;5.10;;;;;;;;;;2081808;28;20182;-53
2022/05/18 00:36:48;;;;;;;5.28;4.88;;;;;;;;;;2081884;28;20517;-56
2022/05/18 00:37:48;;;;;;;7.43;5.55;;;;;;;;;;2082486;28;20188;-54
2022/05/18 00:38:48;;;;;;;6.32;5.45;;;;;;;;;;2082359;28;20196;-56
2022/05/18 00:39:49;;;;;;;7.05;5.13;;;;;;;;;;2082161;28;20168;-55
2022/05/18 00:40:50;;;;;;;5.90;5.50;;;;;;;;;;2082470;28;20172;-56
2022/05/18 00:41:51;;;;;;;5.30;4.88;;;;;;;;;;2082467;28;20176;-53
2022/05/18 00:42:51;;;;;;;6.20;5.30;;;;;;;;;;2082495;28;20180;-55
2022/05/18 00:43:52;;;;;;;5.72;5.13;;;;;;;;;;2082212;28;20184;-57
2022/05/18 00:44:52;;;;;;;5.80;5.22;;;;;;;;;;2082003;28;20160;-52
2022/05/18 00:45:52;;;;;;;6.45;5.80;;;;;;;;;;2082386;28;20204;-54
2022/05/18 00:46:53;;;;;;;7.97;5.28;;;;;;;;;;2082215;28;20615;-52
2022/05/18 00:47:53;;;;;;;5.47;4.97;;;;;;;;;;2082076;28;20172;-56
2022/05/18 00:48:54;;;;;;;6.30;5.55;;;;;;;;;;2082325;28;20379;-54
2022/05/18 00:49:59;;;;;;;7.32;5.30;;;;;;;;;;2081926;28;20505;-55
2022/05/18 00:51:01;;;;;;;6.20;5.28;;;;;;;;;;2082213;28;20632;-53
2022/05/18 00:52:01;;;;;;;6.25;5.75;;;;;;;;;;2082187;28;20790;-54
2022/05/18 00:53:04;;;;;;;5.97;5.45;;;;;;;;;;2082282;28;20185;-56
2022/05/18 00:54:08;;;;;;;6.78;5.15;;;;;;;;;;2081294;28;20176;-55
2022/05/18 00:55:10;;;;;;;6.30;5.30;;;;;;;;;;2081509;28;20184;-54
2022/05/18 00:56:13;;;;;;;5.43;5.03;;;;;;;;;;2082188;28;20577;-54
2022/05/18 00:57:25;;;;;;;5.88;5.15;;;;;;;;;;2081825;28;20212;-54
2022/05/18 00:58:25;;;;;;;6.60;5.18;;;;;;;;;;2082205;28;20186;-56
2022/05/18 00:59:34;;;;;;;6.18;5.68;;;;;;;;;;2082044;28;20695;-56
2022/05/18 01:00:37;;;;;;;6.63;6.00;;;;;;;;;;2081959;28;20169;-57
2022/05/18 01:01:38;;;;;;;6.05;5.40;;;;;;;;;;2081608;28;20227;-53
2022/05/18 01:02:39;;;;;;;7.45;5.28;;;;;;;;;;2081680;28;20172;-56
2022/05/18 01:03:40;;;;;;;6.45;5.88;;;;;;;;;;2082341;28;20183;-53
2022/05/18 01:04:42;;;;;;;8.65;5.50;;;;;;;;;;2081633;28;20183;-55
2022/05/18 01:05:45;;;;;;;6.72;6.10;;;;;;;;;;2082093;28;20172;-55
2022/05/18 01:07:04;;;;;;;6.93;5.88;;;;;;;;;;2081341;28;20176;-56
2022/05/18 01:08:05;;;;;;;6.93;5.68;;;;;;;;;;2075525;28;20688;-54
2022/05/18 01:09:07;;;;;;;7.25;6.57;;;;;;;;;;2081522;28;20247;-55
2022/05/18 01:10:07;;;;;;;7.38;5.90;;;;;;;;;;2082168;28;20183;-56
2022/05/18 01:11:08;;;;;;;9.60;6.35;;;;;;;;;;2081852;28;20560;-54
2022/05/18 01:12:11;;;;;;;7.15;6.35;;;;;;;;;;2082089;28;20219;-53
2022/05/18 01:13:12;;;;;;;7.05;6.13;;;;;;;;;;2079978;28;20223;-55
2022/05/18 01:14:32;;;;;;;6.70;5.95;;;;;;;;;;2078575;28;20234;-55
2022/05/18 01:15:32;;;;;;;7.90;6.18;;;;;;;;;;2081581;28;20202;-55
2022/05/18 01:16:33;;;;;;;7.38;6.30;;;;;;;;;;2081844;28;20207;-52
2022/05/18 01:17:37;;;;;;;6.50;6.00;;;;;;;;;;2082082;28;20168;-55
2022/05/18 01:18:38;;;;;;;7.30;5.97;;;;;;;;;;2074461;28;20294;-55
2022/05/18 01:19:40;;;;;;;7.07;6.38;;;;;;;;;;2082023;28;20184;-55
2022/05/18 01:20:41;;;;;;;6.90;6.30;;;;;;;;;;2081960;28;20306;-54
2022/05/18 01:21:46;;;;;;;6.30;5.60;;;;;;;;;;2081970;28;20180;-56
2022/05/18 01:22:50;;;;;;;6.53;5.88;;;;;;;;;;2082018;28;20302;-56
2022/05/18 01:24:04;;;;;;;7.72;6.15;;;;;;;;;;2081975;28;20191;-57
2022/05/18 01:25:22;;;;;;;6.90;6.30;;;;;;;;;;2082282;28;20298;-57
2022/05/18 01:26:31;;;;;;;8.75;6.22;;;;;;;;;;2082037;28;20180;-57
2022/05/18 01:27:31;;;;;;;7.57;6.45;;;;;;;;;;2081992;28;20176;-54
2022/05/18 01:28:34;;;;;;;7.30;6.60;;;;;;;;;;2081771;28;20248;-53
2022/05/18 01:29:34;;;;;;;6.00;5.50;;;;;;;;;;2082143;28;20184;-55
2022/05/18 01:30:35;;;;;;;9.70;6.30;;;;;;;;;;2081133;28;20168;-56
2022/05/18 01:31:43;;;;;;;7.18;6.40;;;;;;;;;;2081458;28;20180;-54
2022/05/18 01:32:45;;;;;;;6.75;6.18;;;;;;;;;;2082050;28;20164;-53
2022/05/18 01:33:46;;;;;;;7.78;6.30;;;;;;;;;;2081947;28;20259;-53
2022/05/18 01:34:46;;;;;;;9.63;6.18;;;;;;;;;;2081916;28;20171;-55
2022/05/18 01:35:47;;;;;;;6.20;5.70;;;;;;;;;;2081848;28;20247;-55
2022/05/18 01:36:48;;;;;;;7.13;6.43;;;;;;;;;;2081404;28;20238;-57
2022/05/18 01:37:49;;;;;;;7.40;6.80;;;;;;;;;;2081505;28;20168;-54
2022/05/18 01:38:49;;;;;;;7.90;7.10;;;;;;;;;;2081785;28;20238;-55
2022/05/18 01:39:52;;;;;;;6.65;5.85;;;;;;;;;;2081943;28;20172;-56
2022/05/18 01:41:07;;;;;;;7.15;6.38;;;;;;;;;;2073745;28;20260;-54
2022/05/18 01:42:14;;;;;;;6.80;6.25;;;;;;;;;;2075674;28;20163;-56
2022/05/18 01:43:23;;;;;;;6.88;6.28;;;;;;;;;;2081546;28;20225;-57
2022/05/18 01:44:23;;;;;;;7.03;6.10;;;;;;;;;;2080802;28;20188;-53
2022/05/18 01:45:23;;;;;;;7.60;6.75;;;;;;;;;;2081599;28;20750;-53
2022/05/18 01:46:24;;;;;;;7.15;6.45;;;;;;;;;;2081079;28;20586;-52
2022/05/18 01:47:24;;;;;;;6.95;6.40;;;;;;;;;;2081384;28;20250;-56
2022/05/18 01:48:28;;;;;;;8.32;6.63;;;;;;;;;;2081960;28;20165;-56
2022/05/18 01:49:28;;;;;;;7.13;6.32;;;;;;;;;;2074430;28;20192;-54
2022/05/18 01:50:29;;;;;;;6.88;6.15;;;;;;;;;;2081294;28;20566;-56
2022/05/18 01:51:40;;;;;;;8.43;6.53;;;;;;;;;;2081668;28;20172;-55
2022/05/18 01:52:40;;;;;;;7.13;6.43;;;;;;;;;;2081754;28;20641;-55
2022/05/18 01:53:40;;;;;;;6.63;5.97;;;;;;;;;;2081895;28;20196;-53
2022/05/18 01:54:46;;;;;;;7.85;6.68;;;;;;;;;;2081726;28;20196;-56
2022/05/18 01:55:46;;;;;;;11.00;6.35;;;;;;;;;;2082298;28;20288;-55
2022/05/18 01:56:46;;;;;;;6.90;6.18;;;;;;;;;;2081367;28;20640;-55
2022/05/18 01:57:46;;;;;;;8.98;6.53;;;;;;;;;;2082010;28;20176;-55
2022/05/18 01:58:47;;;;;;;6.97;6.28;;;;;;;;;;2081801;28;20255;-52
2022/05/18 01:59:47;;;;;;;6.43;5.82;;;;;;;;;;2082056;28;20164;-52
2022/05/18 02:00:47;;;;;;;7.32;5.72;;;;;;;;;;2082234;28;20230;-54
2022/05/18 02:01:48;;;;;;;7.35;6.65;;;;;;;;;;2082442;28;20202;-57
2022/05/18 02:02:49;;;;;;;6.60;6.00;;;;;;;;;;2082847;28;20169;-55
2022/05/18 02:03:49;;;;;;;7.05;6.43;;;;;;;;;;2082732;28;20777;-55
2022/05/18 02:04:49;;;;;;;6.63;5.95;;;;;;;;;;2082045;28;20207;-54
2022/05/18 02:05:50;;;;;;;8.68;6.55;;;;;;;;;;2082602;28;20535;-54
2022/05/18 02:06:51;;;;;;;7.15;6.45;;;;;;;;;;2082429;28;20214;-57
2022/05/18 02:07:52;;;;;;;8.90;6.70;;;;;;;;;;2082150;28;20203;-56
2022/05/18 02:08:52;;;;;;;6.70;6.22;;;;;;;;;;2082173;28;20165;-52
2022/05/18 02:09:52;;;;;;;7.95;6.15;;;;;;;;;;2082428;28;20191;-56
2022/05/18 02:10:52;;;;;;;7.90;6.10;;;;;;;;;;2082269;28;20171;-56
2022/05/18 02:11:53;;;;;;;6.47;5.88;;;;;;;;;;2082710;28;20206;-55
2022/05/18 02:12:53;;;;;;;6.75;5.88;;;;;;;;;;2082749;28;20555;-56
2022/05/18 02:13:55;;;;;;;7.18;6.28;;;;;;;;;;2082135;28;20656;-56
2022/05/18 02:14:55;;;;;;;6.80;5.75;;;;;;;;;;2082696;28;20177;-58
2022/05/18 02:15:55;;;;;;;6.38;5.80;;;;;;;;;;2082322;28;20172;-57
2022/05/18 02:16:55;;;;;;;7.53;6.28;;;;;;;;;;2082327;28;20184;-56
2022/05/18 02:17:56;;;;;;;7.75;5.97;;;;;;;;;;2082180;28;20218;-56
2022/05/18 02:18:56;;;;;;;6.53;5.88;;;;;;;;;;2082542;28;20554;-56
2022/05/18 02:19:57;;;;;;;7.97;5.93;;;;;;;;;;2082626;28;20204;-55
2022/05/18 02:20:57;;;;;;;6.32;5.75;;;;;;;;;;2082648;28;20218;-54
2022/05/18 02:21:57;;;;;;;7.30;5.50;;;;;;;;;;2082255;28;20168;-56
2022/05/18 02:22:58;;;;;;;6.30;5.70;;;;;;;;;;2081960;28;20200;-55
2022/05/18 02:23:58;;;;;;;7.90;5.97;;;;;;;;;;2081572;28;20633;-55
2022/05/18 02:24:58;;;;;;;6.53;6.00;;;;;;;;;;2081700;28;20232;-54
2022/05/18 02:26:04;;;;;;;6.93;6.43;;;;;;;;;;2081651;28;20286;-55
2022/05/18 02:27:04;;;;;;;6.65;6.00;;;;;;;;;;2082041;28;20199;-56
2022/05/18 02:28:04;;;;;;;6.70;6.20;;;;;;;;;;2081110;28;20207;-55
2022/05/18 02:29:05;;;;;;;6.90;5.90;;;;;;;;;;2080922;28;20204;-55
2022/05/18 02:30:06;;;;;;;6.65;6.05;;;;;;;;;;2080762;28;20695;-52
2022/05/18 02:31:07;;;;;;;6.28;5.68;;;;;;;;;;2081030;28;20176;-58
2022/05/18 02:32:08;;;;;;;6.78;6.10;;;;;;;;;;2081393;28;20176;-56
2022/05/18 02:33:08;;;;;;;8.68;6.75;;;;;;;;;;2081532;28;20549;-55
2022/05/18 02:34:09;;;;;;;9.45;6.45;;;;;;;;;;2081350;28;20264;-52
2022/05/18 02:35:09;;;;;;;8.55;5.72;;;;;;;;;;2081598;28;20799;-56
2022/05/18 02:36:11;;;;;;;8.02;6.20;;;;;;;;;;2081495;28;20177;-56
2022/05/18 02:37:11;;;;;;;6.78;6.18;;;;;;;;;;2081498;28;20196;-55
2022/05/18 02:38:11;;;;;;;7.43;6.72;;;;;;;;;;2081536;28;20206;-53
2022/05/18 02:39:11;;;;;;;7.60;6.90;;;;;;;;;;2081408;28;20583;-52
2022/05/18 02:40:12;;;;;;;6.40;5.85;;;;;;;;;;2086675;28;20164;-53
2022/05/18 02:41:13;;;;;;;6.70;6.05;;;;;;;;;;2087970;28;20295;-55
2022/05/18 02:42:13;;;;;;;7.55;6.85;;;;;;;;;;2089226;28;20240;-55
2022/05/18 02:43:13;;;;;;;7.57;6.80;;;;;;;;;;2080268;28;20173;-53
2022/05/18 02:44:14;;;;;;;7.68;7.07;;;;;;;;;;2081271;28;20206;-54
2022/05/18 02:45:14;;;;;;;7.45;6.68;;;;;;;;;;2089688;28;20194;-54
2022/05/18 02:46:16;;;;;;;7.53;6.63;;;;;;;;;;2090344;28;20164;-53
2022/05/18 02:47:18;;;;;;;8.10;7.40;;;;;;;;;;2090021;28;20207;-54
2022/05/18 02:48:19;;;;;;;9.23;7.63;;;;;;;;;;2088495;28;20172;-54
2022/05/18 02:49:19;;;;;;;8.00;6.93;;;;;;;;;;2090222;28;20180;-54
2022/05/18 02:50:19;;;;;;;7.68;6.82;;;;;;;;;;2089830;28;20214;-54
2022/05/18 02:51:21;;;;;;;8.02;7.43;;;;;;;;;;2089138;28;20172;-56
2022/05/18 02:52:21;;;;;;;8.73;7.40;;;;;;;;;;2090139;28;20247;-54
2022/05/18 02:53:22;;;;;;;9.73;8.18;;;;;;;;;;2090761;28;20168;-54
2022/05/18 02:58:07;;;;;;;8.60;7.88;;;;;;;;;;2065299;28;20215;-53
2022/05/18 02:59:07;;;;;;;8.70;7.93;;;;;;;;;;2071875;28;20240;-54
2022/05/18 03:00:08;;;;;;;9.45;7.72;;;;;;;;;;2072512;28;20168;-54
2022/05/18 03:01:09;;;;;;;9.20;8.30;;;;;;;;;;2073268;28;20245;-52
2022/05/18 03:02:10;;;;;;;8.02;7.22;;;;;;;;;;2068906;28;20169;-54
2022/05/18 03:03:10;;;;;;;8.07;7.28;;;;;;;;;;2069870;28;20173;-55
2022/05/18 03:04:10;;;;;;;9.27;7.65;;;;;;;;;;2072652;28;20525;-53
2022/05/18 03:05:10;;;;;;;8.95;7.53;;;;;;;;;;2072714;28;20176;-52
2022/05/18 03:06:12;;;;;;;10.40;8.82;;;;;;;;;;2072086;28;20817;-56
2022/05/18 03:07:12;;;;;;;8.82;7.53;;;;;;;;;;2072322;28;20216;-53
2022/05/18 03:08:13;;;;;;;10.18;8.00;;;;;;;;;;2072425;28;20642;-50
2022/05/18 03:09:13;;;;;;;8.55;7.75;;;;;;;;;;2073310;28;20187;-52
2022/05/18 03:10:18;;;;;;;8.10;7.50;;;;;;;;;;2073277;28;20180;-53
2022/05/18 03:11:19;;;;;;;11.05;8.77;;;;;;;;;;2072535;28;20622;-55
2022/05/18 03:12:20;;;;;;;8.73;7.90;;;;;;;;;;2065200;28;20173;-53
2022/05/18 03:13:20;;;;;;;8.50;7.72;;;;;;;;;;2072703;28;20209;-57
2022/05/18 03:14:20;;;;;;;9.00;8.10;;;;;;;;;;2072717;28;20172;-54
2022/05/18 03:15:21;;;;;;;9.80;8.35;;;;;;;;;;2072697;28;20319;-53
2022/05/18 03:16:22;;;;;;;8.68;7.68;;;;;;;;;;2073023;28;20625;-51
2022/05/18 03:17:22;;;;;;;9.00;7.38;;;;;;;;;;2073140;28;20188;-50
2022/05/18 03:18:22;;;;;;;9.13;8.23;;;;;;;;;;2072809;28;20188;-56
2022/05/18 03:19:23;;;;;;;10.10;7.60;;;;;;;;;;2073329;28;20262;-52
2022/05/18 03:24:20;;;;;;;10.57;7.65;;;;;;;;;;2072846;28;20199;-53
2022/05/18 03:25:21;;;;;;;9.18;8.27;;;;;;;;;;2073511;28;20651;-53
2022/05/18 03:26:23;;;;;;;8.77;7.97;;;;;;;;;;2072833;28;20177;-58
2022/05/18 03:27:23;;;;;;;10.45;8.60;;;;;;;;;;2072763;28;20225;-54
2022/05/18 03:28:23;;;;;;;9.93;9.00;;;;;;;;;;2072980;28;20267;-53
2022/05/18 03:29:24;;;;;;;8.77;7.80;;;;;;;;;;2073295;28;20177;-53
2022/05/18 03:30:24;;;;;;;9.68;8.50;;;;;;;;;;2072509;28;20272;-53
2022/05/18 03:31:25;;;;;;;9.18;8.27;;;;;;;;;;2072592;28;20169;-52
2022/05/18 03:32:25;;;;;;;9.60;8.80;;;;;;;;;;2071790;28;20267;-57
2022/05/18 03:33:25;;;;;;;10.20;8.20;;;;;;;;;;2064204;28;20268;-56
2022/05/18 03:34:26;;;;;;;11.60;8.32;;;;;;;;;;2071765;28;20366;-56
2022/05/18 03:35:26;;;;;;;9.93;7.95;;;;;;;;;;2074090;28;20235;-54
2022/05/18 03:36:27;;;;;;;8.15;7.43;;;;;;;;;;2073613;28;20230;-54
2022/05/18 03:37:27;;;;;;;8.57;7.78;;;;;;;;;;2074888;28;20239;-53
2022/05/18 03:38:27;;;;;;;14.32;8.75;;;;;;;;;;2074454;28;20253;-55
2022/05/18 03:39:28;;;;;;;10.43;9.07;;;;;;;;;;2072982;28;20712;-57
2022/05/18 03:40:28;;;;;;;9.10;8.32;;;;;;;;;;2073058;28;20177;-52
2022/05/18 03:41:28;;;;;;;11.00;8.50;;;;;;;;;;2074832;28;20176;-55
2022/05/18 03:42:29;;;;;;;8.65;7.93;;;;;;;;;;2075354;28;20567;-57
2022/05/18 03:43:29;;;;;;;8.02;7.30;;;;;;;;;;2074867;28;20185;-53
2022/05/18 03:44:29;;;;;;;8.90;7.93;;;;;;;;;;2074548;28;20227;-53
2022/05/18 03:45:30;;;;;;;9.40;8.50;;;;;;;;;;2073995;28;20263;-52
2022/05/18 03:46:30;;;;;;;9.15;8.23;;;;;;;;;;2074417;28;20173;-54
2022/05/18 03:47:31;;;;;;;11.93;8.15;;;;;;;;;;2074381;28;20191;-53
2022/05/18 03:48:32;;;;;;;9.05;8.00;;;;;;;;;;2073609;28;20173;-55
2022/05/18 03:49:33;;;;;;;10.45;8.68;;;;;;;;;;2074318;28;20236;-53
2022/05/18 03:50:36;;;;;;;8.70;7.80;;;;;;;;;;2074948;28;20188;-55
2022/05/18 03:51:37;;;;;;;9.38;8.05;;;;;;;;;;2074046;28;20191;-54
2022/05/18 03:52:37;;;;;;;8.73;7.80;;;;;;;;;;2074299;28;20207;-54
2022/05/18 03:53:37;;;;;;;9.57;8.68;;;;;;;;;;2074425;28;20169;-56
2022/05/18 03:54:38;;;;;;;9.15;8.35;;;;;;;;;;2073762;28;20180;-54
2022/05/18 03:55:39;;;;;;;9.20;8.32;;;;;;;;;;2074179;28;20580;-54
2022/05/18 03:56:39;;;;;;;11.65;8.88;;;;;;;;;;2066179;28;20173;-55
2022/05/18 03:57:39;;;;;;;9.27;8.32;;;;;;;;;;2066483;28;20233;-56
2022/05/18 03:58:40;;;;;;;10.15;9.05;;;;;;;;;;2071230;28;20606;-54
2022/05/18 03:59:41;;;;;;;9.52;8.55;;;;;;;;;;2074746;28;20212;-55
2022/05/18 04:00:42;;;;;;;10.38;8.85;;;;;;;;;;2074563;28;20633;-55
2022/05/18 04:01:42;;;;;;;10.05;8.88;;;;;;;;;;2073939;28;20173;-53
2022/05/18 04:02:43;;;;;;;10.98;8.57;;;;;;;;;;2074002;28;20563;-53
2022/05/18 04:03:44;;;;;;;9.45;8.38;;;;;;;;;;2074904;28;20161;-58
2022/05/18 04:04:44;;;;;;;8.32;7.57;;;;;;;;;;2073776;28;20227;-56
2022/05/18 04:05:47;;;;;;;8.82;8.00;;;;;;;;;;2065674;28;20180;-53
2022/05/18 04:06:48;;;;;;;11.38;8.98;;;;;;;;;;2073968;28;20175;-53
2022/05/18 04:07:48;;;;;;;9.43;8.38;;;;;;;;;;2074904;28;20292;-57
2022/05/18 04:08:49;;;;;;;8.90;8.20;;;;;;;;;;2074505;28;20176;-51
2022/05/18 04:09:50;;;;;;;8.70;7.88;;;;;;;;;;2074778;28;20187;-56
2022/05/18 04:10:50;;;;;;;9.32;8.25;;;;;;;;;;2074263;28;20161;-55
2022/05/18 04:11:50;;;;;;;8.48;7.78;;;;;;;;;;2074168;28;20172;-58
2022/05/18 04:12:50;;;;;;;8.98;7.90;;;;;;;;;;2074238;28;20264;-52
2022/05/18 04:13:51;;;;;;;10.10;8.18;;;;;;;;;;2074820;28;20255;-56
2022/05/18 04:14:54;;;;;;;8.25;7.45;;;;;;;;;;2074364;28;20598;-53
2022/05/18 04:15:54;;;;;;;8.57;7.78;;;;;;;;;;2074570;28;20164;-55
2022/05/18 04:16:55;;;;;;;8.57;7.78;;;;;;;;;;2073890;28;20709;-53
2022/05/18 04:17:55;;;;;;;9.50;8.25;;;;;;;;;;2073612;28;20183;-52
2022/05/18 04:18:56;;;;;;;8.77;7.70;;;;;;;;;;2072919;28;20268;-56
2022/05/18 04:19:56;;;;;;;8.27;7.40;;;;;;;;;;2073851;28;20212;-55
2022/05/18 04:20:56;;;;;;;8.57;7.65;;;;;;;;;;2073733;28;20193;-54
2022/05/18 04:21:56;;;;;;;7.78;7.18;;;;;;;;;;2074618;28;20272;-56
2022/05/18 04:22:57;;;;;;;8.75;7.30;;;;;;;;;;2073991;28;20531;-52
2022/05/18 04:23:57;;;;;;;9.27;7.28;;;;;;;;;;2074165;28;20161;-61
2022/05/18 04:25:01;;;;;;;11.07;7.50;;;;;;;;;;2074109;28;20173;-51
2022/05/18 04:26:01;;;;;;;9.82;7.53;;;;;;;;;;2074222;28;20539;-55
2022/05/18 04:27:02;;;;;;;9.82;7.28;;;;;;;;;;2073487;28;20169;-50
2022/05/18 04:28:03;;;;;;;11.30;7.38;;;;;;;;;;2065688;28;20548;-56
2022/05/18 04:29:03;;;;;;;7.28;6.68;;;;;;;;;;2073863;28;20188;-56
2022/05/18 04:30:05;;;;;;;7.70;6.72;;;;;;;;;;2074623;28;20188;-53
2022/05/18 04:31:05;;;;;;;7.70;7.10;;;;;;;;;;2074449;28;20193;-57
2022/05/18 04:32:05;;;;;;;7.75;6.95;;;;;;;;;;2074457;28;20169;-52
2022/05/18 04:33:06;;;;;;;10.85;7.95;;;;;;;;;;2073735;28;20566;-53
2022/05/18 04:34:06;;;;;;;8.55;7.75;;;;;;;;;;2073591;28;20200;-54
2022/05/18 04:35:08;;;;;;;8.02;7.22;;;;;;;;;;2073811;28;20669;-55
2022/05/18 04:36:08;;;;;;;9.60;7.82;;;;;;;;;;2073557;28;20248;-52
2022/05/18 04:37:09;;;;;;;9.88;7.18;;;;;;;;;;2074359;28;20169;-53
2022/05/18 04:38:09;;;;;;;10.23;9.23;;;;;;;;;;2073787;28;20673;-55
2022/05/18 04:39:09;;;;;;;7.80;7.10;;;;;;;;;;2074002;28;20265;-57
2022/05/18 04:40:10;;;;;;;9.68;7.95;;;;;;;;;;2074375;28;20528;-54
2022/05/18 04:41:11;;;;;;;8.05;7.18;;;;;;;;;;2074474;28;20165;-51
2022/05/18 04:42:12;;;;;;;9.30;7.60;;;;;;;;;;2072813;28;20180;-58
2022/05/18 04:43:12;;;;;;;7.30;6.70;;;;;;;;;;2073222;28;20234;-52
2022/05/18 04:44:13;;;;;;;7.88;6.40;;;;;;;;;;2073717;28;20177;-50
2022/05/18 04:45:15;;;;;;;7.55;6.60;;;;;;;;;;2074462;28;20161;-56
2022/05/18 04:46:15;;;;;;;7.32;6.72;;;;;;;;;;2073770;28;20173;-52
2022/05/18 04:47:16;;;;;;;7.00;6.38;;;;;;;;;;2073955;28;20161;-52
2022/05/18 04:48:17;;;;;;;9.30;8.32;;;;;;;;;;2074414;28;20600;-54
2022/05/18 04:49:17;;;;;;;6.82;6.15;;;;;;;;;;2069456;28;20228;-51
2022/05/18 04:50:19;;;;;;;9.05;6.55;;;;;;;;;;2074074;28;20861;-59
2022/05/18 04:51:20;;;;;;;6.88;6.28;;;;;;;;;;2074396;28;20187;-50
2022/05/18 04:52:20;;;;;;;9.38;6.53;;;;;;;;;;2073859;28;20169;-55
2022/05/18 04:53:21;;;;;;;8.05;6.05;;;;;;;;;;2074356;28;20726;-53
2022/05/18 04:54:21;;;;;;;6.50;5.88;;;;;;;;;;2073857;28;20244;-59
2022/05/18 04:55:21;;;;;;;9.05;6.65;;;;;;;;;;2073663;28;20173;-53
2022/05/18 04:56:22;;;;;;;6.93;6.22;;;;;;;;;;2073410;28;20185;-58
2022/05/18 04:57:22;;;;;;;8.20;6.70;;;;;;;;;;2074114;28;20211;-58
2022/05/18 04:58:23;;;;;;;6.97;6.38;;;;;;;;;;2074278;28;20177;-56
2022/05/18 04:59:23;;;;;;;8.68;6.30;;;;;;;;;;2074230;28;20247;-54
2022/05/18 05:00:24;;;;;;;7.32;6.63;;;;;;;;;;2074206;28;20173;-57
2022/05/18 05:01:25;;;;;;;7.50;6.90;;;;;;;;;;2074124;28;20627;-59
2022/05/18 05:02:27;;;;;;;6.93;6.00;;;;;;;;;;2073912;28;20180;-57
2022/05/18 05:03:27;;;;;;;7.32;6.28;;;;;;;;;;2073964;28;20678;-59
2022/05/18 05:04:28;;;;;;;7.93;6.57;;;;;;;;;;2073679;28;20165;-56
2022/05/18 05:05:28;;;;;;;7.55;6.82;;;;;;;;;;2074039;28;20715;-58
2022/05/18 05:06:29;;;;;;;7.35;6.13;;;;;;;;;;2073947;28;20175;-60
2022/05/18 05:07:29;;;;;;;8.30;7.28;;;;;;;;;;2074187;28;20668;-60
2022/05/18 05:08:29;;;;;;;7.13;6.63;;;;;;;;;;2073415;28;20283;-59
2022/05/18 05:09:30;;;;;;;10.60;6.45;;;;;;;;;;2073574;28;20592;-59
2022/05/18 05:10:30;;;;;;;8.45;6.65;;;;;;;;;;2065362;28;20169;-62
2022/05/18 05:11:31;;;;;;;6.10;5.60;;;;;;;;;;2065300;28;20616;-59
2022/05/18 05:12:31;;;;;;;8.88;6.55;;;;;;;;;;2074256;28;20256;-59
2022/05/18 05:13:32;;;;;;;7.80;6.25;;;;;;;;;;2074041;28;20733;-62
2022/05/18 05:14:34;;;;;;;8.80;6.90;;;;;;;;;;2072696;28;20200;-58
2022/05/18 05:15:35;;;;;;;8.30;6.07;;;;;;;;;;2074146;28;20181;-62
2022/05/18 05:16:36;;;;;;;15.30;6.55;;;;;;;;;;2074296;28;20176;-59
2022/05/18 05:17:39;;;;;;;17.27;6.53;;;;;;;;;;2074505;28;20188;-64
2022/05/18 05:18:40;;;;;;;8.18;6.10;;;;;;;;;;2075744;28;20553;-63
2022/05/18 05:19:40;;;;;;;10.82;6.85;;;;;;;;;;2075389;28;20189;-61
2022/05/18 05:20:40;;;;;;;6.65;6.05;;;;;;;;;;2074210;28;20540;-58
2022/05/18 05:21:42;;;;;;;6.85;6.18;;;;;;;;;;2073209;28;20173;-65
2022/05/18 05:22:42;;;;;;;6.75;5.97;;;;;;;;;;2067140;28;20186;-56
2022/05/18 05:23:42;;;;;;;7.43;6.53;;;;;;;;;;2074161;28;20169;-53
2022/05/18 05:24:43;;;;;;;7.07;5.80;;;;;;;;;;2073137;28;20177;-53
2022/05/18 05:25:43;;;;;;;7.28;6.60;;;;;;;;;;2074083;28;20185;-53
2022/05/18 05:26:43;;;;;;;10.82;6.53;;;;;;;;;;2074350;28;20180;-53
2022/05/18 05:27:44;;;;;;;6.38;5.82;;;;;;;;;;2073987;28;20224;-55
2022/05/18 05:28:44;;;;;;;7.30;6.65;;;;;;;;;;2073182;28;20177;-56
2022/05/18 05:29:44;;;;;;;7.65;6.78;;;;;;;;;;2072775;28;20236;-56
2022/05/18 05:30:44;;;;;;;8.90;6.10;;;;;;;;;;2074010;28;20192;-55
2022/05/18 05:31:45;;;;;;;7.10;6.40;;;;;;;;;;2073030;28;20642;-54
2022/05/18 05:32:45;;;;;;;6.50;5.82;;;;;;;;;;2074864;28;20284;-56
2022/05/18 05:33:45;;;;;;;7.18;6.10;;;;;;;;;;2073679;28;20188;-54
2022/05/18 05:34:46;;;;;;;6.55;6.07;;;;;;;;;;2073647;28;20169;-56
2022/05/18 05:35:46;;;;;;;6.45;5.80;;;;;;;;;;2074388;28;20184;-53
2022/05/18 05:36:46;;;;;;;10.00;6.18;;;;;;;;;;2074324;28;20184;-56
2022/05/18 05:37:47;;;;;;;6.28;5.68;;;;;;;;;;2073646;28;20264;-59
2022/05/18 05:38:47;;;;;;;12.38;6.75;;;;;;;;;;2073611;28;20177;-54
2022/05/18 05:39:48;;;;;;;20.38;6.60;;;;;;;;;;2073773;28;20165;-54
2022/05/18 05:40:48;;;;;;;10.88;6.18;;;;;;;;;;2073967;28;20165;-55
2022/05/18 05:41:48;;;;;;;11.73;6.22;;;;;;;;;;2073512;28;20238;-57
2022/05/18 05:42:49;;;;;;;6.10;5.60;;;;;;;;;;2073791;28;20183;-53
2022/05/18 05:43:50;;;;;;;7.72;5.82;;;;;;;;;;2073932;28;20211;-53
2022/05/18 05:44:50;;;;;;;7.20;6.40;;;;;;;;;;2073531;28;20169;-50
2022/05/18 05:45:54;;;;;;;11.52;6.03;;;;;;;;;;2074082;28;20180;-54
2022/05/18 05:46:54;;;;;;;10.35;6.28;;;;;;;;;;2074060;28;20169;-57
2022/05/18 05:47:56;;;;;;;6.70;6.18;;;;;;;;;;2073612;28;20185;-53
2022/05/18 05:48:57;;;;;;;6.50;5.97;;;;;;;;;;2069719;28;20534;-55
2022/05/18 05:49:57;;;;;;;12.05;6.25;;;;;;;;;;2065770;28;20166;-55
2022/05/18 05:50:58;;;;;;;8.02;6.43;;;;;;;;;;2065768;28;20177;-57
2022/05/18 05:51:58;;;;;;;10.45;6.78;;;;;;;;;;2065107;28;20162;-56
2022/05/18 05:52:59;;;;;;;7.30;6.63;;;;;;;;;;2065289;28;20158;-53
2022/05/18 05:53:59;;;;;;;13.07;6.72;;;;;;;;;;2065467;28;20204;-52
2022/05/18 05:55:00;;;;;;;8.55;6.40;;;;;;;;;;2065805;28;20169;-52
2022/05/18 05:56:00;;;;;;;6.32;5.72;;;;;;;;;;2065733;28;20181;-55
2022/05/18 05:57:03;;;;;;;7.97;6.30;;;;;;;;;;2065727;28;20178;-55
2022/05/18 05:58:03;;;;;;;10.27;6.28;;;;;;;;;;2065659;28;20221;-59
2022/05/18 05:59:03;;;;;;;7.00;5.72;;;;;;;;;;2065922;28;20220;-56
2022/05/18 06:00:04;;;;;;;7.88;5.80;;;;;;;;;;2066137;28;20169;-54
2022/05/18 06:01:12;;;;;;;6.93;5.88;;;;;;;;;;2065752;28;20169;-54
2022/05/18 06:02:15;;;;;;;7.30;6.40;;;;;;;;;;2065770;28;20177;-55
2022/05/18 06:03:16;;;;;;;11.48;7.00;;;;;;;;;;2064364;28;20222;-55
2022/05/18 06:04:17;;;;;;;12.07;5.75;;;;;;;;;;2063648;28;20166;-56
2022/05/18 06:05:18;;;;;;;11.30;9.35;;;;;;;;;;2065544;28;20192;-54
2022/05/18 06:06:19;;;;;;;6.40;5.90;;;;;;;;;;2072384;28;20180;-52
2022/05/18 06:07:19;;;;;;;6.28;5.63;;;;;;;;;;2073417;28;20238;-54
2022/05/18 06:08:19;;;;;;;7.07;5.07;;;;;;;;;;2073588;28;20588;-53
2022/05/18 06:09:20;;;;;;;10.15;6.18;;;;;;;;;;2072936;28;20169;-56
2022/05/18 06:10:21;;;;;;;7.43;5.95;;;;;;;;;;2064983;28;20220;-53
2022/05/18 06:11:21;;;;;;;7.93;7.13;;;;;;;;;;2073148;28;20211;-56
2022/05/18 06:12:23;;;;;;;7.57;6.50;;;;;;;;;;2073688;28;20176;-55
2022/05/18 06:13:23;;;;;;;7.53;5.35;;;;;;;;;;2073630;28;20668;-55